KRSL

Russell Municipal Airport

Russell, Kansas, USA
METAR KRSL 240753Z AUTO 34007KT 10SM FEW080 FEW100 01/M03 A2998 RMK AO2 SLP167 T00061033
Observed Flight Rules
Jan-24 @ 07:53 UTC (59 minutes ago) Visual Flight Rules
Wind Visibility Clouds
340° at 7 knots 10 miles
  • Few at 8,000' AGL
  • Few at 10,000' AGL
Temperatures Readings
Current 1°C / 34°F
Dewpoint -3°C / 27°F
Humidity 75%
Altimeter 29.98" Hg
Pressure 1016.7 hPa
Elevation 567
METAR KRSL 240753Z AUTO 34007KT 10SM FEW080 FEW100 01/M03 A2998 RMK AO2 SLP167 T00061033
Observed Flight Rules
Jan-24 @ 07:53 UTC
(59 minutes ago)
VFR
Wind Visibility
340° at 7 knots 10 miles
Clouds
  • Few at 8,000' AGL
  • Few at 10,000' AGL
Temperature Dewpoint
1°C / 34°F -3°C / 27°F
Humidity Altimeter Pressure
75% 29.98" Hg 1016.7 hPa